createdAt,value
2018-03-06T00:00:04.628Z,7.57
2018-03-06T00:01:20.023Z,7.54
2018-03-06T00:02:34.393Z,7.53
2018-03-06T00:03:48.670Z,7.51
2018-03-06T00:05:03.351Z,7.5
2018-03-06T00:06:17.510Z,7.43
2018-03-06T00:07:32.194Z,7.37
2018-03-06T00:08:46.284Z,7.3
2018-03-06T00:10:00.694Z,7.26
2018-03-06T00:11:14.261Z,7.23
2018-03-06T00:12:29.336Z,7.19
2018-03-06T00:13:46.039Z,7.17
2018-03-06T00:15:01.172Z,7.1
2018-03-06T00:16:19.675Z,7.03
2018-03-06T00:17:37.955Z,6.98
2018-03-06T00:18:55.100Z,6.93
2018-03-06T00:20:13.348Z,6.89
2018-03-06T00:21:29.374Z,6.84
2018-03-06T00:22:43.809Z,6.81
2018-03-06T00:23:58.011Z,6.72
2018-03-06T00:25:11.884Z,6.71
2018-03-06T00:26:26.570Z,6.67
2018-03-06T00:27:40.661Z,6.66
2018-03-06T00:28:58.775Z,6.64
2018-03-06T00:30:16.335Z,6.62
2018-03-06T00:31:35.390Z,6.61
2018-03-06T00:32:55.022Z,6.59
2018-03-06T00:34:13.216Z,6.6
2018-03-06T00:35:30.092Z,6.63
2018-03-06T00:36:45.946Z,6.63
2018-03-06T00:38:01.143Z,6.64
2018-03-06T00:39:15.506Z,6.63
2018-03-06T00:40:29.940Z,6.61
2018-03-06T00:41:44.116Z,6.6
2018-03-06T00:42:59.093Z,6.58
2018-03-06T00:44:14.410Z,6.57
2018-03-06T00:45:32.998Z,6.56
2018-03-06T00:46:48.194Z,6.58
2018-03-06T00:48:03.289Z,6.56
2018-03-06T00:49:18.306Z,6.54
2018-03-06T00:50:32.950Z,6.5
2018-03-06T00:51:47.078Z,6.47
2018-03-06T00:53:01.764Z,6.46
2018-03-06T00:54:16.955Z,6.42
2018-03-06T00:55:32.552Z,6.39
2018-03-06T00:56:50.335Z,6.39
2018-03-06T00:58:06.347Z,6.39
2018-03-06T00:59:21.529Z,6.42
2018-03-06T01:00:36.201Z,6.43
2018-03-06T01:01:50.067Z,6.43
2018-03-06T01:03:04.204Z,6.43
2018-03-06T01:04:18.883Z,6.41
2018-03-06T01:05:34.335Z,6.41
2018-03-06T01:06:49.768Z,6.41
2018-03-06T01:08:06.326Z,6.4
2018-03-06T01:09:22.610Z,6.41
2018-03-06T01:10:38.984Z,6.43
2018-03-06T01:11:55.573Z,6.44
2018-03-06T01:13:09.209Z,6.45
2018-03-06T01:14:24.249Z,6.45
2018-03-06T01:15:38.423Z,6.45
2018-03-06T01:16:52.020Z,6.43
2018-03-06T01:18:06.451Z,6.44
2018-03-06T01:19:35.779Z,6.45
2018-03-06T01:20:49.935Z,6.44
2018-03-06T01:22:04.472Z,6.42
2018-03-06T01:23:19.632Z,6.39
2018-03-06T01:24:36.655Z,6.37
2018-03-06T01:25:52.092Z,6.39
2018-03-06T01:27:09.480Z,6.39
2018-03-06T01:28:25.868Z,6.36
2018-03-06T01:29:39.950Z,6.35
2018-03-06T01:30:54.543Z,6.33
2018-03-06T01:32:08.184Z,6.31
2018-03-06T01:33:23.663Z,6.29
2018-03-06T01:34:40.850Z,6.24
2018-03-06T01:35:59.349Z,6.21
2018-03-06T01:37:18.401Z,6.18
2018-03-06T01:38:33.728Z,6.15
2018-03-06T01:39:48.819Z,6.14
2018-03-06T01:41:03.477Z,6.14
2018-03-06T01:42:17.051Z,6.13
2018-03-06T01:43:31.779Z,6.1
2018-03-06T01:44:47.551Z,6.07
2018-03-06T01:46:04.910Z,6.06
2018-03-06T01:47:33.741Z,6.05
2018-03-06T01:48:52.296Z,6.02
2018-03-06T01:50:10.207Z,6.02
2018-03-06T01:51:25.125Z,5.98
2018-03-06T01:52:39.408Z,5.91
2018-03-06T01:53:54.119Z,5.89
2018-03-06T01:55:08.476Z,5.85
2018-03-06T01:56:23.929Z,5.82
2018-03-06T01:57:39.530Z,5.79
2018-03-06T01:58:56.936Z,5.74
2018-03-06T02:00:15.298Z,5.72
2018-03-06T02:01:32.789Z,5.69
2018-03-06T02:02:47.619Z,5.65
2018-03-06T02:04:01.197Z,5.61
2018-03-06T02:05:14.822Z,5.6
2018-03-06T02:06:28.946Z,5.57
2018-03-06T02:07:43.348Z,5.57
2018-03-06T02:08:57.494Z,5.54
2018-03-06T02:10:12.557Z,5.52
2018-03-06T02:11:27.935Z,5.51
2018-03-06T02:12:42.095Z,5.51
2018-03-06T02:13:56.865Z,5.46
2018-03-06T02:15:10.959Z,5.38
2018-03-06T02:16:25.347Z,5.32
2018-03-06T02:17:39.464Z,5.25
2018-03-06T02:18:53.864Z,5.19
2018-03-06T02:20:08.283Z,5.16
2018-03-06T02:21:22.402Z,5.15
2018-03-06T02:22:36.806Z,5.15
2018-03-06T02:23:52.854Z,5.18
2018-03-06T02:25:09.726Z,5.2
2018-03-06T02:26:27.705Z,5.26
2018-03-06T02:27:43.469Z,5.33
2018-03-06T02:28:57.571Z,5.39
2018-03-06T02:30:12.425Z,5.45
2018-03-06T02:31:27.202Z,5.49
2018-03-06T02:32:41.386Z,5.51
2018-03-06T02:33:55.777Z,5.52
2018-03-06T02:35:10.355Z,5.56
2018-03-06T02:36:25.146Z,5.6
2018-03-06T02:37:39.295Z,5.64
2018-03-06T02:38:56.276Z,5.67
2018-03-06T02:40:13.114Z,5.71
2018-03-06T02:41:28.341Z,5.71
2018-03-06T02:42:41.906Z,5.68
2018-03-06T02:43:55.809Z,5.65
2018-03-06T02:45:09.935Z,5.64
2018-03-06T02:46:24.184Z,5.62
2018-03-06T02:47:37.846Z,5.59
2018-03-06T02:48:53.797Z,5.55
2018-03-06T02:50:09.919Z,5.54
2018-03-06T02:51:25.585Z,5.52
2018-03-06T02:52:41.017Z,5.54
2018-03-06T02:53:59.319Z,5.54
2018-03-06T02:55:13.455Z,5.55
2018-03-06T02:56:27.575Z,5.55
2018-03-06T02:57:41.423Z,5.57
2018-03-06T02:58:55.796Z,5.54
2018-03-06T03:00:09.884Z,5.52
2018-03-06T03:01:24.034Z,5.52
2018-03-06T03:02:39.828Z,5.52
2018-03-06T03:03:55.988Z,5.53
2018-03-06T03:05:12.829Z,5.51
2018-03-06T03:06:44.844Z,5.52
2018-03-06T03:08:03.249Z,5.52
2018-03-06T03:09:21.511Z,5.53
2018-03-06T03:10:39.144Z,5.5
2018-03-06T03:11:54.784Z,5.49
2018-03-06T03:13:09.370Z,5.49
2018-03-06T03:14:23.526Z,5.48
2018-03-06T03:15:37.176Z,5.5
2018-03-06T03:16:52.119Z,5.49
2018-03-06T03:18:06.239Z,5.49
2018-03-06T03:19:20.348Z,5.46
2018-03-06T03:20:35.119Z,5.44
2018-03-06T03:21:49.461Z,5.41
2018-03-06T03:23:07.500Z,5.4
2018-03-06T03:24:24.311Z,5.36
2018-03-06T03:25:40.711Z,5.32
2018-03-06T03:26:55.479Z,5.29
2018-03-06T03:28:09.873Z,5.27
2018-03-06T03:29:38.045Z,5.22
2018-03-06T03:30:52.370Z,5.16
2018-03-06T03:32:05.800Z,5.13
2018-03-06T03:33:21.721Z,5.11
2018-03-06T03:34:39.261Z,5.08
2018-03-06T03:35:55.444Z,5.07
2018-03-06T03:37:09.809Z,5.04
2018-03-06T03:38:38.535Z,4.99
2018-03-06T03:39:52.383Z,4.93
2018-03-06T03:41:07.091Z,4.9
2018-03-06T03:42:21.560Z,4.89
2018-03-06T03:43:36.282Z,4.83
2018-03-06T03:44:54.772Z,4.77
2018-03-06T03:46:12.894Z,4.74
2018-03-06T03:47:28.283Z,4.72
2018-03-06T03:48:42.968Z,4.72
2018-03-06T03:49:57.120Z,4.69
2018-03-06T03:51:12.093Z,4.67
2018-03-06T03:52:26.928Z,4.66
2018-03-06T03:53:44.446Z,4.61
2018-03-06T03:55:00.755Z,4.61
2018-03-06T03:56:17.294Z,4.57
2018-03-06T03:57:31.135Z,4.52
2018-03-06T03:58:45.223Z,4.48
2018-03-06T03:59:59.876Z,4.44
2018-03-06T04:01:14.024Z,4.4
2018-03-06T04:02:29.654Z,4.39
2018-03-06T04:03:44.443Z,4.37
2018-03-06T04:05:02.249Z,4.32
2018-03-06T04:06:16.567Z,4.28
2018-03-06T04:07:30.962Z,4.22
2018-03-06T04:08:44.949Z,4.16
2018-03-06T04:10:01.476Z,4.12
2018-03-06T04:11:18.313Z,4.08
2018-03-06T04:12:47.238Z,4.06
2018-03-06T04:14:04.202Z,4.05
2018-03-06T04:15:21.657Z,4.04
2018-03-06T04:16:37.609Z,4.04
2018-03-06T04:17:52.341Z,4.01
2018-03-06T04:19:06.624Z,4.02
2018-03-06T04:20:20.495Z,4.04
2018-03-06T04:21:34.657Z,4.05
2018-03-06T04:22:51.116Z,4.05
2018-03-06T04:24:08.704Z,4.08
2018-03-06T04:25:24.819Z,4.11
2018-03-06T04:26:40.934Z,4.12
2018-03-06T04:27:55.050Z,4.11
2018-03-06T04:29:08.911Z,4.11
2018-03-06T04:30:23.278Z,4.08
2018-03-06T04:31:37.923Z,4.06
2018-03-06T04:32:53.443Z,4.03
2018-03-06T04:34:09.982Z,3.99
2018-03-06T04:35:27.143Z,3.98
2018-03-06T04:36:45.968Z,3.98
2018-03-06T04:38:02.134Z,3.96
2018-03-06T04:39:15.892Z,4
2018-03-06T04:40:30.027Z,3.99
2018-03-06T04:41:43.868Z,3.97
2018-03-06T04:42:57.984Z,3.96
2018-03-06T04:44:13.219Z,3.93
2018-03-06T04:45:27.964Z,3.92
2018-03-06T04:46:45.862Z,3.87
2018-03-06T04:48:02.811Z,3.84
2018-03-06T04:49:21.252Z,3.81
2018-03-06T04:50:36.084Z,3.79
2018-03-06T04:51:50.666Z,3.75
2018-03-06T04:53:04.752Z,3.73
2018-03-06T04:54:18.619Z,3.69
2018-03-06T04:55:33.019Z,3.67
2018-03-06T04:56:47.432Z,3.65
2018-03-06T04:58:01.862Z,3.65
2018-03-06T04:59:16.662Z,3.66
2018-03-06T05:00:34.912Z,3.68
2018-03-06T05:01:49.970Z,3.69
2018-03-06T05:03:05.174Z,3.72
2018-03-06T05:04:19.583Z,3.75
2018-03-06T05:05:34.206Z,3.76
2018-03-06T05:06:48.650Z,3.76
2018-03-06T05:08:03.291Z,3.77
2018-03-06T05:09:18.292Z,3.77
2018-03-06T05:10:32.132Z,3.78
2018-03-06T05:11:47.429Z,3.81
2018-03-06T05:13:04.302Z,3.82
2018-03-06T05:14:18.869Z,3.8
2018-03-06T05:15:33.281Z,3.81
2018-03-06T05:16:47.739Z,3.82
2018-03-06T05:18:02.735Z,3.81
2018-03-06T05:19:17.820Z,3.82
2018-03-06T05:20:32.024Z,3.83
2018-03-06T05:21:47.601Z,3.83
2018-03-06T05:23:02.931Z,3.83
2018-03-06T05:24:19.406Z,3.86
2018-03-06T05:25:36.792Z,3.85
2018-03-06T05:26:53.892Z,3.8
2018-03-06T05:28:09.578Z,3.79
2018-03-06T05:29:23.705Z,3.75
2018-03-06T05:30:38.336Z,3.73
2018-03-06T05:31:52.716Z,3.71
2018-03-06T05:33:06.869Z,3.67
2018-03-06T05:34:21.009Z,3.65
2018-03-06T05:35:34.892Z,3.62
2018-03-06T05:36:50.503Z,3.6
2018-03-06T05:38:06.331Z,3.57
2018-03-06T05:39:22.523Z,3.6
2018-03-06T05:40:39.523Z,3.6
2018-03-06T05:41:55.534Z,3.6
2018-03-06T05:43:11.786Z,3.61
2018-03-06T05:44:28.962Z,3.59
2018-03-06T05:45:47.589Z,3.6
2018-03-06T05:47:03.395Z,3.61
2018-03-06T05:48:19.896Z,3.63
2018-03-06T05:49:33.721Z,3.64
2018-03-06T05:50:47.812Z,3.62
2018-03-06T05:52:02.284Z,3.63
2018-03-06T05:53:16.280Z,3.65
2018-03-06T05:54:29.625Z,3.68
2018-03-06T05:55:44.076Z,3.7
2018-03-06T05:56:58.798Z,3.69
2018-03-06T05:58:15.712Z,3.68
2018-03-06T05:59:32.952Z,3.7
2018-03-06T06:00:49.514Z,3.71
2018-03-06T06:02:07.884Z,3.75
2018-03-06T06:03:24.751Z,3.78
2018-03-06T06:04:38.592Z,3.79
2018-03-06T06:05:52.500Z,3.8
2018-03-06T06:07:06.883Z,3.77
2018-03-06T06:08:21.251Z,3.77
2018-03-06T06:09:36.800Z,3.8
2018-03-06T06:10:50.965Z,3.83
2018-03-06T06:12:05.947Z,3.87
2018-03-06T06:13:20.322Z,3.92
2018-03-06T06:14:34.166Z,3.94
2018-03-06T06:15:48.473Z,3.98
2018-03-06T06:17:02.767Z,3.99
2018-03-06T06:18:16.348Z,4.02
2018-03-06T06:19:30.140Z,4.03
2018-03-06T06:20:43.947Z,4.05
2018-03-06T06:21:58.240Z,4.06
2018-03-06T06:23:12.786Z,4.09
2018-03-06T06:24:27.220Z,4.12
2018-03-06T06:25:41.679Z,4.18
2018-03-06T06:26:56.656Z,4.23
2018-03-06T06:28:10.554Z,4.28
2018-03-06T06:29:24.173Z,4.36
2018-03-06T06:30:38.494Z,4.39
2018-03-06T06:31:52.852Z,4.47
2018-03-06T06:33:06.680Z,4.5
2018-03-06T06:34:21.008Z,4.52
2018-03-06T06:35:35.340Z,4.56
2018-03-06T06:36:48.921Z,4.58
2018-03-06T06:38:02.738Z,4.63
2018-03-06T06:39:17.013Z,4.67
2018-03-06T06:40:30.867Z,4.71
2018-03-06T06:41:45.414Z,4.73
2018-03-06T06:43:00.237Z,4.69
2018-03-06T06:44:14.327Z,4.7
2018-03-06T06:45:29.123Z,4.7
2018-03-06T06:46:43.203Z,4.75
2018-03-06T06:47:56.887Z,4.81
2018-03-06T06:49:11.744Z,4.79
2018-03-06T06:50:26.040Z,4.79
2018-03-06T06:51:40.337Z,4.77
2018-03-06T06:52:54.162Z,4.8
2018-03-06T06:54:07.997Z,4.81
2018-03-06T06:55:22.552Z,4.85
2018-03-06T06:56:36.601Z,4.91
2018-03-06T06:57:50.759Z,4.95
2018-03-06T06:59:04.823Z,4.98
2018-03-06T07:00:19.347Z,4.98
2018-03-06T07:01:33.392Z,4.94
2018-03-06T07:02:47.664Z,4.93
2018-03-06T07:04:02.494Z,4.95
2018-03-06T07:05:16.868Z,4.94
2018-03-06T07:06:30.430Z,4.92
2018-03-06T07:07:44.725Z,4.93
2018-03-06T07:08:58.291Z,4.97
2018-03-06T07:10:12.076Z,5
2018-03-06T07:11:25.632Z,4.99
2018-03-06T07:12:39.695Z,5.01
2018-03-06T07:13:53.994Z,5
2018-03-06T07:15:07.555Z,5.01
2018-03-06T07:16:22.334Z,5.01
2018-03-06T07:17:36.882Z,5.04
2018-03-06T07:18:51.185Z,5.05
2018-03-06T07:20:05.481Z,5.05
2018-03-06T07:21:20.036Z,5.07
2018-03-06T07:22:34.120Z,5.08
2018-03-06T07:23:48.314Z,5.05
2018-03-06T07:25:01.940Z,5.06
2018-03-06T07:26:16.245Z,5.06
2018-03-06T07:27:30.085Z,5.03
2018-03-06T07:28:44.629Z,5.02
2018-03-06T07:29:59.412Z,5.04
2018-03-06T07:31:14.331Z,5.07
2018-03-06T07:32:28.661Z,5.15
2018-03-06T07:33:43.236Z,5.19
2018-03-06T07:34:57.583Z,5.16
2018-03-06T07:36:11.678Z,5.13
2018-03-06T07:37:25.849Z,5.13
2018-03-06T07:38:39.895Z,5.19
2018-03-06T07:39:54.220Z,5.23
2018-03-06T07:41:07.804Z,5.29
2018-03-06T07:42:22.360Z,5.35
2018-03-06T07:43:36.174Z,5.44
2018-03-06T07:44:50.489Z,5.56
2018-03-06T07:46:04.562Z,5.63
2018-03-06T07:47:18.601Z,5.71
2018-03-06T07:48:32.422Z,5.78
2018-03-06T07:49:46.705Z,5.84
2018-03-06T07:51:01.051Z,5.9
2018-03-06T07:52:15.427Z,5.93
2018-03-06T07:55:13.974Z,6.05
2018-03-06T07:56:29.143Z,6.09
2018-03-06T07:57:43.102Z,6.18
2018-03-06T07:58:57.215Z,6.18
2018-03-06T08:00:11.289Z,6.2
2018-03-06T08:01:24.866Z,6.23
2018-03-06T08:02:39.958Z,6.27
2018-03-06T08:03:54.144Z,6.27
2018-03-06T08:05:08.455Z,6.32
2018-03-06T08:06:22.532Z,6.34
2018-03-06T08:07:37.261Z,6.37
2018-03-06T08:08:51.664Z,6.36
2018-03-06T08:10:05.735Z,6.27
2018-03-06T08:11:19.839Z,6.25
2018-03-06T08:12:34.659Z,6.23
2018-03-06T08:13:48.990Z,6.27
2018-03-06T08:15:02.980Z,6.29
2018-03-06T08:16:17.316Z,6.2
2018-03-06T08:17:31.398Z,6.17
2018-03-06T08:18:45.999Z,6.1
2018-03-06T08:20:00.292Z,6.12
2018-03-06T08:21:14.382Z,6.15
2018-03-06T08:22:28.684Z,6.19
2018-03-06T08:23:43.221Z,6.14
2018-03-06T08:24:57.838Z,6.14
2018-03-06T08:26:11.905Z,6.08
2018-03-06T08:27:26.215Z,6.02
2018-03-06T08:28:40.883Z,6.07
2018-03-06T08:29:54.980Z,6.09
2018-03-06T08:31:09.279Z,6.15
2018-03-06T08:32:23.374Z,6.21
2018-03-06T08:33:37.413Z,6.24
2018-03-06T08:34:52.061Z,6.31
2018-03-06T08:36:06.134Z,6.32
2018-03-06T08:37:20.283Z,6.37
2018-03-06T08:38:35.087Z,6.4
2018-03-06T08:39:48.700Z,6.42
2018-03-06T08:41:02.655Z,6.43
2018-03-06T08:42:16.846Z,6.46
2018-03-06T08:43:31.167Z,6.37
2018-03-06T08:44:45.289Z,6.4
2018-03-06T08:45:59.967Z,6.38
2018-03-06T08:47:14.084Z,6.43
2018-03-06T08:48:28.479Z,6.47
2018-03-06T08:49:42.819Z,6.51
2018-03-06T08:50:57.648Z,6.56
2018-03-06T08:52:11.972Z,6.62
2018-03-06T08:53:26.424Z,6.69
2018-03-06T08:54:40.837Z,6.77
2018-03-06T08:55:55.729Z,6.82
2018-03-06T08:57:09.546Z,6.87
2018-03-06T08:58:23.842Z,6.91
2018-03-06T08:59:37.889Z,6.97
2018-03-06T09:00:52.441Z,7.04
2018-03-06T09:02:06.508Z,7.06
2018-03-06T09:03:20.901Z,7.1
2018-03-06T09:04:35.016Z,7.16
2018-03-06T09:05:49.058Z,7.22
2018-03-06T09:07:03.116Z,7.29
2018-03-06T09:08:17.709Z,7.35
2018-03-06T09:09:32.753Z,7.43
2018-03-06T09:10:47.215Z,7.5
2018-03-06T09:12:01.586Z,7.54
2018-03-06T09:13:15.973Z,7.61
2018-03-06T09:14:30.297Z,7.69
2018-03-06T09:15:44.100Z,7.73
2018-03-06T09:16:58.168Z,7.78
2018-03-06T09:18:12.155Z,7.86
2018-03-06T09:19:25.993Z,7.92
2018-03-06T09:20:39.801Z,7.97
2018-03-06T09:21:54.109Z,8.02
2018-03-06T09:23:08.183Z,8.08
2018-03-06T09:24:22.781Z,8.08
2018-03-06T09:25:37.224Z,8.07
2018-03-06T09:26:51.259Z,8.01
2018-03-06T09:28:05.319Z,7.96
2018-03-06T09:29:18.619Z,7.96
2018-03-06T09:30:32.436Z,7.9
2018-03-06T09:31:46.228Z,7.92
2018-03-06T09:33:01.140Z,7.92
2018-03-06T09:34:15.457Z,7.91
2018-03-06T09:35:30.014Z,7.96
2018-03-06T09:36:44.059Z,8.04
2018-03-06T09:37:58.193Z,8.13
2018-03-06T09:39:12.307Z,8.16
2018-03-06T09:40:26.469Z,8.11
2018-03-06T09:41:41.006Z,8.17
2018-03-06T09:42:54.844Z,8.23
2018-03-06T09:44:09.527Z,8.3
2018-03-06T09:45:23.853Z,8.36
2018-03-06T09:46:37.934Z,8.46
2018-03-06T09:47:51.991Z,8.49
2018-03-06T09:49:06.263Z,8.52
2018-03-06T09:50:20.029Z,8.53
2018-03-06T09:51:34.168Z,8.52
2018-03-06T09:52:48.478Z,8.57
2018-03-06T09:54:02.538Z,8.63
2018-03-06T09:55:16.584Z,8.72
2018-03-06T09:56:30.391Z,8.78
2018-03-06T09:57:44.865Z,8.76
2018-03-06T09:58:59.045Z,8.71
2018-03-06T10:00:13.244Z,8.66
2018-03-06T10:01:27.063Z,8.65
2018-03-06T10:02:41.168Z,8.7
2018-03-06T10:03:55.038Z,8.76
2018-03-06T10:05:09.107Z,8.86
2018-03-06T10:06:22.823Z,8.96
2018-03-06T10:07:37.157Z,9.04
2018-03-06T10:08:51.466Z,9.17
2018-03-06T10:10:05.143Z,9.25
2018-03-06T10:11:19.502Z,9.35
2018-03-06T10:12:34.102Z,9.43
2018-03-06T10:13:48.177Z,9.49
2018-03-06T10:15:02.034Z,9.57
2018-03-06T10:16:16.282Z,9.57
2018-03-06T10:17:30.416Z,9.55
2018-03-06T10:18:44.787Z,9.55
2018-03-06T10:19:59.619Z,9.58
2018-03-06T10:21:13.919Z,9.61
2018-03-06T10:22:28.302Z,9.67
2018-03-06T10:23:42.735Z,9.73
2018-03-06T10:24:57.904Z,9.81
2018-03-06T10:26:12.225Z,9.84
2018-03-06T10:27:26.552Z,9.88
2018-03-06T10:28:40.356Z,9.9
2018-03-06T10:29:54.518Z,9.92
2018-03-06T10:31:08.909Z,9.98
2018-03-06T10:32:22.847Z,10.06
2018-03-06T10:33:36.679Z,10.14
2018-03-06T10:34:51.037Z,10.22
2018-03-06T10:36:05.340Z,10.28
2018-03-06T10:37:19.460Z,10.32
2018-03-06T10:38:33.359Z,10.38
2018-03-06T10:39:47.450Z,10.42
2018-03-06T10:41:01.803Z,10.48
2018-03-06T10:42:16.740Z,10.54
2018-03-06T10:43:30.796Z,10.57
2018-03-06T10:44:44.663Z,10.61
2018-03-06T10:45:58.758Z,10.63
2018-03-06T10:47:12.829Z,10.65
2018-03-06T10:48:26.898Z,10.7
2018-03-06T10:49:41.275Z,10.75
2018-03-06T10:52:25.047Z,10.94
2018-03-06T10:53:39.313Z,11.03
2018-03-06T10:54:54.094Z,11.08
2018-03-06T10:56:08.609Z,11.17
2018-03-06T10:57:22.952Z,11.22
2018-03-06T10:58:37.026Z,11.25
2018-03-06T11:00:05.785Z,11.25
2018-03-06T11:01:20.176Z,11.24
2018-03-06T11:02:33.987Z,11.24
2018-03-06T11:03:48.544Z,11.18
2018-03-06T11:05:02.594Z,11.13
2018-03-06T11:06:16.918Z,11.15
2018-03-06T11:07:31.447Z,11.17
2018-03-06T11:08:45.421Z,11.19
2018-03-06T11:09:59.462Z,11.23
2018-03-06T11:11:13.748Z,11.33
2018-03-06T11:12:27.670Z,11.43
2018-03-06T11:13:41.552Z,11.5
2018-03-06T11:14:55.961Z,11.6
2018-03-06T11:16:10.124Z,11.68
2018-03-06T11:17:24.428Z,11.76
2018-03-06T11:18:38.507Z,11.82
2018-03-06T11:19:53.045Z,11.86
2018-03-06T11:21:07.597Z,11.85
2018-03-06T11:22:21.532Z,11.85
2018-03-06T11:23:35.710Z,11.86
2018-03-06T11:24:50.040Z,11.87
2018-03-06T11:26:04.156Z,11.91
2018-03-06T11:27:18.235Z,11.93
2018-03-06T11:28:32.395Z,11.93
2018-03-06T11:29:46.712Z,11.96
2018-03-06T11:31:00.901Z,11.97
2018-03-06T11:32:14.976Z,11.98
2018-03-06T11:33:29.036Z,12
2018-03-06T11:34:43.145Z,12.03
2018-03-06T11:35:57.198Z,12.07
2018-03-06T11:37:11.413Z,12.16
2018-03-06T11:38:25.500Z,12.22
2018-03-06T11:39:39.655Z,12.28
2018-03-06T11:40:53.778Z,12.35
2018-03-06T11:42:08.016Z,12.39
2018-03-06T11:43:22.393Z,12.42
2018-03-06T11:44:36.965Z,12.46
2018-03-06T11:45:50.629Z,12.49
2018-03-06T11:47:04.948Z,12.53
2018-03-06T11:48:19.424Z,12.54
2018-03-06T11:49:34.067Z,12.53
2018-03-06T11:50:48.160Z,12.52
2018-03-06T11:52:01.973Z,12.49
2018-03-06T11:53:16.391Z,12.45
2018-03-06T11:54:30.794Z,12.41
2018-03-06T11:55:45.120Z,12.39
2018-03-06T11:57:00.030Z,12.39
2018-03-06T11:58:14.618Z,12.42
2018-03-06T11:59:28.722Z,12.44
2018-03-06T12:00:42.909Z,12.47
2018-03-06T12:01:57.521Z,12.54
2018-03-06T12:03:12.093Z,12.58
2018-03-06T12:04:26.454Z,12.62
2018-03-06T12:05:40.511Z,12.64
2018-03-06T12:06:54.786Z,12.66
2018-03-06T12:08:09.446Z,12.67
2018-03-06T12:09:23.564Z,12.65
2018-03-06T12:10:38.162Z,12.65
2018-03-06T12:11:52.772Z,12.65
2018-03-06T12:13:07.075Z,12.67
2018-03-06T12:14:21.572Z,12.72
2018-03-06T12:15:34.911Z,12.74
2018-03-06T12:16:49.050Z,12.76
2018-03-06T12:18:02.893Z,12.77
2018-03-06T12:19:17.201Z,12.83
2018-03-06T12:20:31.512Z,12.88
2018-03-06T12:21:45.855Z,12.93
2018-03-06T12:22:59.921Z,13.03
2018-03-06T12:24:13.744Z,13.08
2018-03-06T12:25:27.536Z,13.18
2018-03-06T12:26:41.845Z,13.24
2018-03-06T12:27:56.132Z,13.31
2018-03-06T12:29:09.756Z,13.37
2018-03-06T12:30:24.441Z,13.41
2018-03-06T12:31:38.743Z,13.46
2018-03-06T12:32:52.870Z,13.5
2018-03-06T12:34:07.397Z,13.51
2018-03-06T12:35:22.262Z,13.49
2018-03-06T12:36:36.342Z,13.45
2018-03-06T12:37:50.656Z,13.43
2018-03-06T12:39:04.269Z,13.46
2018-03-06T12:40:18.360Z,13.5
2018-03-06T12:41:33.030Z,13.57
2018-03-06T12:42:47.987Z,13.61
2018-03-06T12:44:02.578Z,13.66
2018-03-06T12:45:16.656Z,13.69
2018-03-06T12:46:30.731Z,13.74
2018-03-06T12:47:44.689Z,13.78
2018-03-06T12:48:58.772Z,13.77
2018-03-06T12:50:12.887Z,13.81
2018-03-06T12:51:27.000Z,13.85
2018-03-06T12:52:40.859Z,13.86
2018-03-06T12:53:54.695Z,13.89
2018-03-06T12:55:09.051Z,13.91
2018-03-06T12:56:23.382Z,13.95
2018-03-06T12:57:38.106Z,13.97
2018-03-06T12:58:52.400Z,14.02
2018-03-06T13:00:06.484Z,14.06
2018-03-06T13:01:20.645Z,14.1
2018-03-06T13:02:34.732Z,14.11
2018-03-06T13:03:48.738Z,14.08
2018-03-06T13:05:03.332Z,14.05
2018-03-06T13:06:17.748Z,14.04
2018-03-06T13:07:31.958Z,14.03
2018-03-06T13:08:46.303Z,14
2018-03-06T13:10:00.711Z,13.94
2018-03-06T13:11:14.559Z,13.9
2018-03-06T13:12:43.505Z,13.85
2018-03-06T13:13:58.195Z,13.8
2018-03-06T13:15:12.402Z,13.84
2018-03-06T13:16:25.708Z,13.85
2018-03-06T13:17:40.115Z,13.86
2018-03-06T13:18:54.561Z,13.87
2018-03-06T13:20:08.617Z,13.89
2018-03-06T13:21:22.943Z,13.92
2018-03-06T13:22:37.556Z,13.95
2018-03-06T13:23:51.677Z,13.96
2018-03-06T13:25:05.233Z,13.98
2018-03-06T13:26:19.312Z,14.01
2018-03-06T13:30:31.052Z,13.98
2018-03-06T13:31:45.133Z,13.95
2018-03-06T13:34:28.441Z,13.98
2018-03-06T13:35:42.729Z,14.02
2018-03-06T13:36:57.648Z,14.07
2018-03-06T13:38:11.727Z,14.12
2018-03-06T13:39:26.275Z,14.14
2018-03-06T13:40:40.355Z,14.15
2018-03-06T13:41:54.390Z,14.18
2018-03-06T13:43:09.096Z,14.2
2018-03-06T13:44:22.694Z,14.19
2018-03-06T13:45:36.794Z,14.23
2018-03-06T13:46:51.339Z,14.22
2018-03-06T13:48:04.896Z,14.24
2018-03-06T13:49:19.138Z,14.25
2018-03-06T13:50:33.699Z,14.25
2018-03-06T13:51:48.015Z,14.26
2018-03-06T13:53:02.434Z,14.25
2018-03-06T13:54:17.001Z,14.22
2018-03-06T13:55:30.711Z,14.23
2018-03-06T13:56:45.198Z,14.23
2018-03-06T13:57:58.815Z,14.24
2018-03-06T13:59:13.592Z,14.24
2018-03-06T14:00:28.992Z,14.28
2018-03-06T14:01:44.071Z,14.32
2018-03-06T14:02:58.811Z,14.42
2018-03-06T14:04:12.834Z,14.47
2018-03-06T14:05:28.379Z,14.51
2018-03-06T14:06:43.172Z,14.58
2018-03-06T14:07:57.372Z,14.62
2018-03-06T14:09:11.724Z,14.68
2018-03-06T14:10:25.930Z,14.72
2018-03-06T14:11:40.491Z,14.73
2018-03-06T14:12:55.171Z,14.72
2018-03-06T14:14:09.511Z,14.73
2018-03-06T14:15:23.855Z,14.74
2018-03-06T14:16:38.030Z,14.75
2018-03-06T14:17:51.660Z,14.75
2018-03-06T14:19:05.125Z,14.77
2018-03-06T14:20:19.275Z,14.78
2018-03-06T14:21:33.583Z,14.77
2018-03-06T14:22:47.920Z,14.78
2018-03-06T14:24:02.515Z,14.76
2018-03-06T14:25:17.560Z,14.76
2018-03-06T14:26:31.888Z,14.75
2018-03-06T14:27:45.984Z,14.74
2018-03-06T14:29:00.114Z,14.7
2018-03-06T14:30:14.209Z,14.64
2018-03-06T14:31:43.797Z,14.58
2018-03-06T14:32:58.151Z,14.53
2018-03-06T14:34:11.755Z,14.54
2018-03-06T14:35:26.429Z,14.55
2018-03-06T14:36:40.338Z,14.54
2018-03-06T14:37:54.197Z,14.56
2018-03-06T14:39:08.346Z,14.58
2018-03-06T14:40:22.452Z,14.62
2018-03-06T14:41:36.833Z,14.62
2018-03-06T14:42:51.532Z,14.64
2018-03-06T14:44:05.836Z,14.6
2018-03-06T14:45:20.426Z,14.57
2018-03-06T14:46:34.568Z,14.5
2018-03-06T14:47:48.416Z,14.44
2018-03-06T14:49:02.489Z,14.42
2018-03-06T14:50:16.309Z,14.42
2018-03-06T14:51:30.505Z,14.46
2018-03-06T14:52:44.383Z,14.5
2018-03-06T14:53:58.709Z,14.53
2018-03-06T14:55:13.100Z,14.58
2018-03-06T14:56:27.954Z,14.62
2018-03-06T14:57:42.718Z,14.66
2018-03-06T14:58:57.576Z,14.66
2018-03-06T15:00:11.270Z,14.69
2018-03-06T15:01:40.107Z,14.68
2018-03-06T15:02:53.952Z,14.66
2018-03-06T15:04:08.338Z,14.69
2018-03-06T15:05:22.728Z,14.67
2018-03-06T15:06:37.129Z,14.65
2018-03-06T15:07:52.001Z,14.64
2018-03-06T15:09:06.127Z,14.66
2018-03-06T15:10:20.957Z,14.66
2018-03-06T15:11:34.820Z,14.69
2018-03-06T15:12:48.910Z,14.68
2018-03-06T15:14:03.539Z,14.65
2018-03-06T15:15:18.015Z,14.63
2018-03-06T15:16:32.118Z,14.62
2018-03-06T15:17:46.219Z,14.58
2018-03-06T15:19:00.977Z,14.58
2018-03-06T15:20:15.110Z,14.58
2018-03-06T15:21:28.959Z,14.58
2018-03-06T15:22:42.883Z,14.55
2018-03-06T15:23:58.059Z,14.54
2018-03-06T15:25:12.747Z,14.55
2018-03-06T15:26:26.649Z,14.55
2018-03-06T15:27:40.731Z,14.55
2018-03-06T15:28:55.562Z,14.53
2018-03-06T15:30:09.846Z,14.51
2018-03-06T15:31:24.046Z,14.51
2018-03-06T15:32:38.150Z,14.51
2018-03-06T15:33:53.006Z,14.52
2018-03-06T15:35:07.368Z,14.55
2018-03-06T15:36:21.882Z,14.57
2018-03-06T15:37:36.312Z,14.62
2018-03-06T15:38:50.912Z,14.65
2018-03-06T15:40:04.744Z,14.65
2018-03-06T15:41:18.855Z,14.65
2018-03-06T15:42:32.224Z,14.64
2018-03-06T15:43:45.950Z,14.62
2018-03-06T15:45:00.754Z,14.61
2018-03-06T15:46:15.102Z,14.58
2018-03-06T15:47:29.498Z,14.55
2018-03-06T15:48:43.962Z,14.56
2018-03-06T15:49:58.545Z,14.56
2018-03-06T15:51:12.727Z,14.56
2018-03-06T15:52:26.780Z,14.55
2018-03-06T15:53:40.888Z,14.55
2018-03-06T15:54:55.227Z,14.58
2018-03-06T15:56:09.075Z,14.59
2018-03-06T15:57:23.160Z,14.59
2018-03-06T15:58:37.253Z,14.61
2018-03-06T15:59:51.556Z,14.62
2018-03-06T16:01:05.112Z,14.64
2018-03-06T16:02:19.780Z,14.64
2018-03-06T16:03:34.663Z,14.62
2018-03-06T16:04:49.277Z,14.58
2018-03-06T16:06:02.894Z,14.54
2018-03-06T16:07:16.949Z,14.51
2018-03-06T16:08:30.779Z,14.44
2018-03-06T16:09:44.852Z,14.42
2018-03-06T16:10:58.760Z,14.38
2018-03-06T16:12:13.096Z,14.32
2018-03-06T16:13:27.456Z,14.28
2018-03-06T16:14:41.545Z,14.26
2018-03-06T16:15:55.368Z,14.23
2018-03-06T16:17:09.671Z,14.23
2018-03-06T16:18:24.472Z,14.21
2018-03-06T16:19:38.450Z,14.19
2018-03-06T16:20:52.887Z,14.16
2018-03-06T16:22:07.316Z,14.14
2018-03-06T16:23:21.617Z,14.11
2018-03-06T16:24:35.960Z,14.09
2018-03-06T16:25:50.266Z,14.06
2018-03-06T16:27:03.820Z,14.03
2018-03-06T16:28:18.059Z,14
2018-03-06T16:29:32.658Z,13.94
2018-03-06T16:30:46.791Z,13.88
2018-03-06T16:32:01.126Z,13.84
2018-03-06T16:33:15.480Z,13.79
2018-03-06T16:34:30.251Z,13.74